Time;durP1;ratioP1;P1;durP2;ratioP2;P2;SDS_P1;SDS_P2;PMS_P1;PMS_P2;Temp;Humidity;BMP_temperature;BMP_pressure;BME280_temperature;BME280_humidity;BME280_pressure;Samples;Min_cycle;Max_cycle;Signal;HPM_P1;HPM_P2
2020/12/04 00:02:08;;;;;;;12.45;7.55;;;8.00;78.60;;;;;;5095306;28;20028;-72
2020/12/04 00:04:34;;;;;;;10.77;6.22;;;8.00;78.40;;;;;;5094768;28;20036;-72
2020/12/04 00:07:00;;;;;;;13.73;7.70;;;7.90;78.50;;;;;;5095396;28;20478;-72
2020/12/04 00:09:26;;;;;;;6.40;4.18;;;7.90;78.30;;;;;;5095377;28;20047;-72
2020/12/04 00:11:52;;;;;;;11.63;7.47;;;7.90;78.40;;;;;;5094503;28;20468;-72
2020/12/04 00:14:17;;;;;;;9.68;5.63;;;7.90;78.40;;;;;;5095365;28;20027;-72
2020/12/04 00:16:43;;;;;;;8.43;5.65;;;7.90;78.20;;;;;;5095088;28;20046;-72
2020/12/04 00:19:09;;;;;;;13.45;6.97;;;7.90;78.30;;;;;;5094581;28;20030;-72
2020/12/04 00:21:34;;;;;;;11.88;6.53;;;7.90;78.00;;;;;;5094999;28;20480;-72
2020/12/04 00:24:00;;;;;;;9.40;5.70;;;7.90;78.20;;;;;;5094974;28;20036;-72
2020/12/04 00:26:26;;;;;;;13.20;7.75;;;7.80;77.80;;;;;;5093480;28;20052;-72
2020/12/04 00:28:51;;;;;;;7.50;4.47;;;7.80;78.00;;;;;;5095094;28;20028;-71
2020/12/04 00:31:17;;;;;;;12.32;7.55;;;7.80;78.10;;;;;;5095062;28;20028;-72
2020/12/04 00:33:43;;;;;;;9.80;5.93;;;7.80;77.40;;;;;;5094200;28;20119;-72
2020/12/04 00:36:09;;;;;;;14.00;7.20;;;7.80;77.60;;;;;;5094789;28;20502;-72
2020/12/04 00:38:35;;;;;;;11.48;6.57;;;7.80;77.40;;;;;;5094241;28;20039;-72
2020/12/04 00:41:01;;;;;;;11.18;6.85;;;7.80;77.40;;;;;;5094558;28;20059;-72
2020/12/04 00:43:28;;;;;;;6.50;4.25;;;7.80;77.30;;;;;;5094763;28;20384;-72
2020/12/04 00:45:54;;;;;;;11.70;7.45;;;7.80;77.60;;;;;;5094022;28;20089;-72
2020/12/04 00:48:20;;;;;;;12.23;7.05;;;7.80;77.30;;;;;;5093357;28;20479;-72
2020/12/04 00:50:46;;;;;;;10.88;5.82;;;7.80;77.10;;;;;;5094665;28;20028;-72
2020/12/04 00:53:11;;;;;;;12.20;6.78;;;7.80;77.40;;;;;;5092541;28;20057;-72
2020/12/04 00:55:40;;;;;;;12.63;6.53;;;7.80;77.00;;;;;;5093340;28;20028;-72
2020/12/04 00:58:06;;;;;;;13.18;6.53;;;7.80;76.80;;;;;;5093079;28;20057;-72
2020/12/04 01:00:34;;;;;;;12.52;6.95;;;7.80;77.40;;;;;;5092357;28;20020;-72
2020/12/04 01:03:00;;;;;;;10.75;4.32;;;7.80;77.30;;;;;;5094376;28;20051;-72
2020/12/04 01:05:25;;;;;;;10.68;4.95;;;7.80;77.20;;;;;;5094354;28;20021;-71
2020/12/04 01:07:51;;;;;;;11.35;7.40;;;7.80;77.10;;;;;;5093372;28;20040;-71
2020/12/04 01:10:16;;;;;;;10.50;5.80;;;7.80;76.90;;;;;;5094166;28;20024;-72
2020/12/04 01:12:42;;;;;;;12.00;6.45;;;7.80;76.30;;;;;;5094359;28;20052;-72
2020/12/04 01:15:08;;;;;;;10.23;5.63;;;7.80;76.50;;;;;;5093452;28;20638;-72
2020/12/04 01:17:35;;;;;;;9.80;5.85;;;7.80;76.60;;;;;;5094261;28;20107;-72
2020/12/04 01:20:01;;;;;;;12.18;5.78;;;7.80;76.50;;;;;;5093868;28;20058;-71
2020/12/04 01:22:26;;;;;;;9.45;5.65;;;7.80;76.70;;;;;;5093165;28;20064;-72
2020/12/04 01:24:52;;;;;;;14.43;6.93;;;7.80;76.40;;;;;;5093934;28;20032;-72
2020/12/04 01:27:18;;;;;;;13.45;5.65;;;7.80;76.50;;;;;;5093855;28;20388;-72
2020/12/04 01:29:44;;;;;;;4.93;3.13;;;7.80;76.60;;;;;;5093185;28;20035;-72
2020/12/04 01:32:09;;;;;;;12.20;4.95;;;7.80;76.90;;;;;;5094167;28;20103;-72
2020/12/04 01:34:35;;;;;;;9.20;5.35;;;7.80;76.90;;;;;;5093874;28;20488;-72
2020/12/04 01:37:01;;;;;;;10.18;5.03;;;7.80;76.90;;;;;;5093211;28;20024;-72
2020/12/04 01:39:26;;;;;;;13.45;6.38;;;7.80;77.00;;;;;;5093595;28;20031;-72
2020/12/04 01:41:52;;;;;;;7.30;3.67;;;7.90;76.90;;;;;;5093278;28;20055;-71
2020/12/04 01:44:18;;;;;;;11.55;6.55;;;7.80;76.80;;;;;;5094049;27;20060;-72
2020/12/04 01:46:43;;;;;;;9.48;5.75;;;7.80;76.80;;;;;;5093719;28;20501;-72
2020/12/04 01:49:09;;;;;;;11.40;6.40;;;7.80;76.80;;;;;;5093050;28;20047;-72
2020/12/04 01:51:36;;;;;;;6.35;3.60;;;7.80;76.80;;;;;;5093575;28;20090;-72
2020/12/04 01:54:03;;;;;;;11.05;5.43;;;7.90;77.10;;;;;;5093592;28;20028;-72
2020/12/04 01:56:36;;;;;;;11.77;6.88;;;7.80;77.00;;;;;;5092796;28;20028;-72
2020/12/04 01:59:02;;;;;;;10.88;5.65;;;7.80;76.70;;;;;;5093773;28;20063;-72
2020/12/04 02:01:28;;;;;;;10.55;5.88;;;7.80;76.70;;;;;;5093534;28;20422;-72
2020/12/04 02:03:54;;;;;;;12.85;6.68;;;7.80;76.90;;;;;;5092617;28;20040;-72
2020/12/04 02:06:39;;;;;;;7.72;4.15;;;7.80;77.10;;;;;;5093369;28;20111;-72
2020/12/04 02:09:09;;;;;;;9.32;5.00;;;7.80;76.80;;;;;;5093376;28;20032;-72
2020/12/04 02:11:37;;;;;;;11.45;5.57;;;7.80;76.70;;;;;;5092902;28;20035;-72
2020/12/04 02:14:04;;;;;;;9.43;4.97;;;7.80;76.80;;;;;;5093203;28;20039;-72
2020/12/04 02:16:30;;;;;;;7.10;4.32;;;7.80;76.60;;;;;;5093271;28;20036;-72
2020/12/04 02:18:56;;;;;;;9.60;5.15;;;7.80;76.90;;;;;;5092497;28;20039;-72
2020/12/04 02:21:22;;;;;;;12.73;6.63;;;7.80;77.60;;;;;;5092870;28;20047;-72
2020/12/04 02:23:49;;;;;;;12.80;5.95;;;7.80;76.90;;;;;;5093399;28;20044;-72
2020/12/04 02:26:18;;;;;;;6.65;3.42;;;7.80;77.20;;;;;;5092681;28;20032;-72
2020/12/04 02:28:44;;;;;;;5.70;2.55;;;7.70;77.00;;;;;;5093253;28;20043;-72
2020/12/04 02:31:09;;;;;;;4.38;3.13;;;7.80;77.80;;;;;;5092564;28;20028;-72
2020/12/04 02:33:35;;;;;;;11.75;6.47;;;7.80;78.10;;;;;;5093071;28;20499;-72
2020/12/04 02:36:02;;;;;;;9.63;5.13;;;7.80;77.20;;;;;;5093130;28;20530;-72
2020/12/04 02:38:28;;;;;;;10.18;5.57;;;7.80;77.50;;;;;;5092514;28;20050;-71
2020/12/04 02:40:54;;;;;;;9.38;5.07;;;7.80;77.10;;;;;;5093312;28;20041;-72
2020/12/04 02:43:21;;;;;;;13.13;5.32;;;7.80;76.80;;;;;;5093237;28;20127;-72
2020/12/04 02:45:47;;;;;;;10.52;5.65;;;7.80;76.70;;;;;;5092319;28;20149;-72
2020/12/04 02:48:14;;;;;;;10.48;4.32;;;7.70;76.70;;;;;;5093930;28;20368;-72
2020/12/04 02:50:40;;;;;;;5.25;2.20;;;7.70;76.90;;;;;;5097092;28;20050;-72
2020/12/04 02:53:06;;;;;;;6.47;2.95;;;7.70;77.30;;;;;;5096035;28;20039;-72
2020/12/04 02:55:32;;;;;;;9.30;4.47;;;7.70;77.80;;;;;;5096868;28;20107;-71
2020/12/04 02:57:58;;;;;;;9.05;5.07;;;7.70;78.10;;;;;;5096682;28;20073;-71
2020/12/04 03:00:25;;;;;;;10.07;4.82;;;7.70;77.60;;;;;;5096020;28;20099;-72
2020/12/04 03:02:51;;;;;;;15.07;6.05;;;7.70;77.50;;;;;;5096499;28;20185;-72
2020/12/04 03:05:16;;;;;;;8.20;4.20;;;7.80;76.90;;;;;;5096473;28;20061;-72
2020/12/04 03:07:42;;;;;;;11.85;6.13;;;7.80;77.30;;;;;;5096039;28;20043;-72
2020/12/04 03:10:08;;;;;;;9.38;4.22;;;7.80;76.90;;;;;;5096614;28;20028;-72
2020/12/04 03:12:38;;;;;;;11.27;6.07;;;7.80;77.10;;;;;;5096295;28;20059;-72
2020/12/04 03:15:05;;;;;;;9.13;3.67;;;7.80;77.60;;;;;;5095667;28;20118;-72
2020/12/04 03:17:34;;;;;;;11.00;6.10;;;7.80;78.00;;;;;;5096441;28;20387;-72
2020/12/04 03:20:00;;;;;;;7.00;2.92;;;7.80;77.40;;;;;;5096386;28;20039;-71
2020/12/04 03:22:26;;;;;;;11.00;4.13;;;7.80;77.50;;;;;;5095447;28;20511;-72
2020/12/04 03:24:52;;;;;;;8.18;3.75;;;7.80;77.40;;;;;;5096301;28;20064;-72
2020/12/04 03:27:19;;;;;;;13.05;6.07;;;7.80;77.60;;;;;;5094609;28;20036;-72
2020/12/04 03:29:47;;;;;;;11.82;5.43;;;7.80;77.60;;;;;;5096011;28;20032;-72
2020/12/04 03:32:14;;;;;;;15.38;6.45;;;7.80;77.40;;;;;;5096199;28;20073;-72
2020/12/04 03:34:40;;;;;;;4.78;2.63;;;7.80;76.50;;;;;;5095146;28;20032;-73
2020/12/04 03:37:06;;;;;;;10.23;5.28;;;7.80;76.40;;;;;;5096061;28;20046;-72
2020/12/04 03:39:31;;;;;;;8.10;3.85;;;7.80;76.50;;;;;;5095934;28;20550;-72
2020/12/04 03:41:57;;;;;;;6.10;2.47;;;7.80;76.80;;;;;;5095252;28;20032;-72
2020/12/04 03:44:23;;;;;;;10.68;5.72;;;7.80;76.90;;;;;;5095611;27;20048;-72
2020/12/04 03:46:49;;;;;;;8.18;4.72;;;7.80;76.90;;;;;;5095749;28;20039;-72
2020/12/04 03:49:15;;;;;;;11.45;5.57;;;7.80;76.70;;;;;;5095081;28;20028;-72
2020/12/04 03:51:44;;;;;;;13.32;6.55;;;7.80;76.60;;;;;;5095778;28;20028;-72
2020/12/04 03:54:11;;;;;;;11.20;5.22;;;7.80;75.90;;;;;;5095772;28;20032;-72
2020/12/04 03:56:37;;;;;;;11.50;5.72;;;7.80;76.40;;;;;;5094934;28;20024;-72
2020/12/04 03:59:03;;;;;;;16.95;8.20;;;7.80;76.70;;;;;;5095086;28;20036;-72
2020/12/04 04:01:29;;;;;;;11.75;5.82;;;7.80;76.70;;;;;;5095013;28;20438;-72
2020/12/04 04:03:54;;;;;;;10.77;5.55;;;7.80;77.00;;;;;;5094734;28;20116;-72
2020/12/04 04:06:20;;;;;;;9.32;4.22;;;7.70;77.40;;;;;;5095490;28;20099;-72
2020/12/04 04:08:45;;;;;;;11.27;5.82;;;7.80;77.70;;;;;;5095355;28;20382;-72
2020/12/04 04:11:11;;;;;;;12.85;6.22;;;7.80;77.60;;;;;;5094553;28;20038;-72
2020/12/04 04:13:37;;;;;;;12.07;6.47;;;7.70;76.80;;;;;;5095326;28;20074;-72
2020/12/04 04:16:03;;;;;;;16.05;7.38;;;7.70;76.40;;;;;;5095411;28;20024;-72
2020/12/04 04:18:29;;;;;;;14.07;6.03;;;7.70;76.60;;;;;;5094422;28;20032;-72
2020/12/04 04:20:54;;;;;;;7.63;3.60;;;7.70;76.90;;;;;;5095013;28;20093;-72
2020/12/04 04:23:20;;;;;;;13.25;5.07;;;7.70;77.10;;;;;;5095102;28;20048;-72
2020/12/04 04:25:46;;;;;;;12.57;6.55;;;7.70;76.70;;;;;;5094299;28;20036;-72
2020/12/04 04:28:11;;;;;;;14.05;6.97;;;7.70;76.50;;;;;;5094838;28;20032;-72
2020/12/04 04:30:41;;;;;;;13.60;7.45;;;7.70;76.40;;;;;;5094433;28;20536;-72
2020/12/04 04:33:08;;;;;;;14.07;6.30;;;7.70;76.60;;;;;;5095044;28;20089;-72
2020/12/04 04:35:34;;;;;;;12.32;6.60;;;7.70;76.60;;;;;;5094851;28;20036;-72
2020/12/04 04:38:00;;;;;;;16.85;7.60;;;7.70;77.20;;;;;;5094261;28;20047;-72
2020/12/04 04:40:26;;;;;;;10.40;5.22;;;7.70;76.80;;;;;;5094947;28;20030;-72
2020/12/04 04:43:12;;;;;;;7.93;4.50;;;7.70;77.00;;;;;;5094571;28;20043;-72
2020/12/04 04:45:45;;;;;;;16.77;7.63;;;7.70;77.70;;;;;;5094156;28;20024;-72
2020/12/04 04:48:15;;;;;;;6.35;2.88;;;7.70;77.40;;;;;;5094736;28;20032;-72
2020/12/04 04:50:44;;;;;;;14.25;6.82;;;7.60;77.90;;;;;;5094558;28;20035;-72
2020/12/04 04:53:10;;;;;;;14.45;7.63;;;7.70;78.00;;;;;;5093708;28;20114;-72
2020/12/04 04:55:43;;;;;;;13.85;7.22;;;7.60;78.10;;;;;;5094635;28;20032;-72
2020/12/04 04:58:10;;;;;;;13.73;7.77;;;7.60;78.60;;;;;;5094674;28;20028;-72
2020/12/04 05:00:36;;;;;;;7.70;4.15;;;7.60;77.40;;;;;;5093826;28;20292;-72
2020/12/04 05:03:04;;;;;;;12.98;7.07;;;7.60;77.90;;;;;;5094182;28;20043;-72
2020/12/04 05:05:47;;;;;;;12.85;5.20;;;7.60;77.60;;;;;;5094203;28;20065;-72
2020/12/04 05:08:17;;;;;;;13.43;6.07;;;7.60;78.00;;;;;;5094532;28;20039;-72
2020/12/04 05:10:43;;;;;;;14.00;8.10;;;7.60;77.70;;;;;;5094120;28;20028;-72
2020/12/04 05:13:10;;;;;;;15.43;7.15;;;7.50;77.30;;;;;;5093580;28;20387;-72
2020/12/04 05:15:36;;;;;;;7.13;4.18;;;7.60;77.10;;;;;;5094205;28;20028;-72
2020/12/04 05:18:18;;;;;;;8.38;4.65;;;7.50;78.10;;;;;;5094000;28;20430;-72
2020/12/04 05:20:52;;;;;;;6.55;2.72;;;7.50;78.20;;;;;;5093319;28;20052;-72
2020/12/04 05:23:18;;;;;;;10.23;5.03;;;7.50;78.90;;;;;;5093985;28;20078;-72
2020/12/04 05:25:48;;;;;;;12.73;5.60;;;7.60;78.60;;;;;;5094102;28;20077;-72
2020/12/04 05:28:19;;;;;;;7.55;4.00;;;7.50;78.70;;;;;;5093181;28;20040;-72
2020/12/04 05:30:47;;;;;;;15.10;7.75;;;7.60;78.50;;;;;;5093858;27;20028;-72
2020/12/04 05:33:16;;;;;;;11.73;5.28;;;7.60;78.30;;;;;;5094014;28;20058;-72
2020/12/04 05:35:42;;;;;;;11.63;4.05;;;7.60;78.10;;;;;;5092976;28;20464;-72
2020/12/04 05:38:16;;;;;;;13.43;6.72;;;7.60;78.60;;;;;;5093981;28;20043;-72
2020/12/04 05:41:01;;;;;;;10.15;4.90;;;7.50;78.60;;;;;;5093773;28;20028;-72
2020/12/04 05:43:30;;;;;;;10.55;6.35;;;7.50;78.70;;;;;;5093291;28;20101;-72
2020/12/04 05:46:24;;;;;;;14.55;7.57;;;7.50;78.20;;;;;;5093501;28;20036;-72
2020/12/04 05:49:04;;;;;;;13.85;7.43;;;7.60;78.40;;;;;;5093053;28;20028;-72
2020/12/04 05:51:32;;;;;;;12.35;5.65;;;7.50;78.20;;;;;;5093664;28;20036;-72
2020/12/04 05:53:59;;;;;;;12.98;6.60;;;7.50;78.40;;;;;;5093412;28;20471;-72
2020/12/04 05:56:25;;;;;;;7.45;4.03;;;7.60;78.30;;;;;;5092809;28;20059;-72
2020/12/04 05:58:56;;;;;;;7.63;3.90;;;7.50;78.70;;;;;;5093625;28;20093;-72
2020/12/04 06:01:23;;;;;;;17.90;6.30;;;7.50;78.30;;;;;;5093475;28;20054;-72
2020/12/04 06:03:53;;;;;;;15.48;7.55;;;7.50;78.60;;;;;;5092634;28;20125;-72
2020/12/04 06:06:39;;;;;;;13.68;5.82;;;7.50;78.60;;;;;;5093392;28;20028;-72
2020/12/04 06:09:07;;;;;;;11.50;6.25;;;7.50;78.90;;;;;;5092518;28;20517;-69
2020/12/04 06:11:44;;;;;;;10.27;4.70;;;7.50;79.20;;;;;;5093276;28;20193;-81
2020/12/04 06:14:17;;;;;;;4.80;2.60;;;7.50;79.30;;;;;;5093378;28;20032;-71
2020/12/04 06:16:44;;;;;;;11.90;5.75;;;7.50;79.50;;;;;;5092793;28;20376;-71
2020/12/04 06:19:29;;;;;;;15.85;7.80;;;7.50;79.80;;;;;;5092671;28;20471;-70
2020/12/04 06:22:06;;;;;;;9.70;5.03;;;7.50;79.80;;;;;;5090957;28;20055;-70
2020/12/04 06:24:56;;;;;;;14.40;7.43;;;7.50;79.80;;;;;;5094460;28;20035;-70
2020/12/04 06:27:38;;;;;;;12.88;5.10;;;7.50;80.20;;;;;;5093462;28;20024;-69
2020/12/04 06:30:05;;;;;;;10.75;6.63;;;7.50;80.40;;;;;;5093671;28;20047;-70
2020/12/04 06:32:36;;;;;;;9.75;3.05;;;7.50;80.30;;;;;;5094752;28;20059;-70
2020/12/04 06:35:04;;;;;;;14.82;7.03;;;7.50;80.40;;;;;;5095654;28;20032;-71
2020/12/04 06:37:37;;;;;;;12.57;6.68;;;7.50;80.40;;;;;;5096249;28;20094;-70
2020/12/04 06:40:20;;;;;;;9.43;5.03;;;7.50;80.40;;;;;;5097351;28;20089;-68
2020/12/04 06:42:46;;;;;;;10.10;5.80;;;7.50;80.40;;;;;;5096929;28;20032;-69
2020/12/04 06:45:12;;;;;;;10.40;5.53;;;7.50;80.40;;;;;;5096276;28;20046;-68
2020/12/04 06:47:37;;;;;;;7.68;3.95;;;7.60;80.60;;;;;;5096812;28;20513;-68
2020/12/04 06:50:03;;;;;;;18.38;9.00;;;7.60;80.60;;;;;;5097041;28;20035;-68
2020/12/04 06:52:28;;;;;;;8.55;4.80;;;7.60;80.60;;;;;;5096216;28;20048;-68
2020/12/04 06:54:55;;;;;;;11.77;5.50;;;7.60;80.70;;;;;;5096728;28;20032;-69
2020/12/04 06:57:23;;;;;;;12.75;7.50;;;7.60;80.90;;;;;;5096699;28;20091;-69
2020/12/04 06:59:49;;;;;;;13.80;6.60;;;7.60;80.70;;;;;;5095890;28;20376;-70
2020/12/04 07:02:20;;;;;;;7.90;3.88;;;7.50;80.70;;;;;;5096630;28;20020;-72
2020/12/04 07:04:53;;;;;;;8.40;4.80;;;7.60;80.90;;;;;;5096648;28;20035;-70
2020/12/04 07:07:20;;;;;;;;;;;7.50;81.10;;;;;;5096201;28;20057;-72
2020/12/04 07:10:00;;;;;;;10.85;5.72;;;7.60;81.10;;;;;;5096385;28;19908;-70
2020/12/04 07:12:27;;;;;;;13.13;7.00;;;7.50;81.10;;;;;;5095098;28;20028;-69
2020/12/04 07:14:54;;;;;;;15.93;7.95;;;7.50;81.00;;;;;;5094650;28;20047;-70
2020/12/04 07:17:25;;;;;;;13.38;7.25;;;7.50;81.20;;;;;;5095852;28;20031;-69
2020/12/04 07:19:53;;;;;;;16.20;7.70;;;7.60;81.30;;;;;;5094761;28;20467;-70
2020/12/04 07:22:21;;;;;;;8.23;4.45;;;7.50;81.20;;;;;;5095119;28;20063;-69
2020/12/04 07:24:47;;;;;;;9.13;4.03;;;7.50;81.30;;;;;;5095548;28;20480;-69
2020/12/04 07:27:18;;;;;;;14.77;7.63;;;7.60;81.60;;;;;;5095199;28;20039;-69
2020/12/04 07:29:45;;;;;;;14.63;7.15;;;7.60;81.50;;;;;;5096249;28;20085;-69
2020/12/04 07:32:11;;;;;;;10.35;6.03;;;7.60;81.40;;;;;;5096179;28;20032;-69
2020/12/04 07:34:38;;;;;;;11.00;6.15;;;7.60;81.60;;;;;;5095055;28;20028;-69
2020/12/04 07:37:08;;;;;;;12.93;7.25;;;7.60;81.60;;;;;;5096036;28;20039;-69
2020/12/04 07:39:38;;;;;;;10.93;6.25;;;7.60;81.60;;;;;;5096057;28;20115;-69
2020/12/04 07:42:05;;;;;;;10.05;4.25;;;7.60;81.60;;;;;;5095107;28;20472;-69
2020/12/04 07:44:36;;;;;;;8.23;4.30;;;7.60;81.50;;;;;;5095845;28;20044;-69
2020/12/04 07:47:16;;;;;;;7.50;4.47;;;7.60;81.50;;;;;;5095777;28;20055;-69
2020/12/04 07:49:52;;;;;;;12.13;5.40;;;7.60;81.60;;;;;;5095120;28;20028;-70
2020/12/04 07:52:27;;;;;;;11.00;4.35;;;7.60;81.70;;;;;;5095696;28;20456;-70
2020/12/04 07:55:06;;;;;;;13.30;6.75;;;7.60;81.60;;;;;;5095141;28;20035;-70
2020/12/04 07:57:53;;;;;;;10.95;5.22;;;7.60;81.40;;;;;;5095847;28;20024;-70
2020/12/04 08:00:18;;;;;;;12.05;6.15;;;7.70;81.50;;;;;;5095093;28;20090;-69
2020/12/04 08:02:44;;;;;;;10.82;5.32;;;7.70;81.80;;;;;;5094741;28;20487;-69
2020/12/04 08:05:22;;;;;;;10.40;5.88;;;7.70;81.60;;;;;;5095646;28;20429;-70
2020/12/04 08:07:54;;;;;;;10.25;5.47;;;7.70;81.30;;;;;;5095842;28;20101;-69
2020/12/04 08:10:20;;;;;;;18.55;8.35;;;7.70;81.30;;;;;;5094578;28;20365;-70
2020/12/04 08:12:49;;;;;;;13.30;6.40;;;7.70;81.80;;;;;;5095370;28;20028;-69
2020/12/04 08:15:19;;;;;;;9.05;4.47;;;7.70;81.20;;;;;;5095194;28;20468;-69
2020/12/04 08:17:45;;;;;;;3.97;2.40;;;7.70;81.10;;;;;;5094772;28;20028;-69
2020/12/04 08:20:15;;;;;;;6.00;2.78;;;7.70;81.30;;;;;;5095151;28;20356;-69
2020/12/04 08:22:41;;;;;;;5.05;3.03;;;7.70;81.50;;;;;;5094485;28;20031;-69
2020/12/04 08:25:07;;;;;;;9.40;4.95;;;7.70;81.70;;;;;;5095052;28;20491;-69
2020/12/04 08:27:44;;;;;;;12.48;5.93;;;7.70;81.70;;;;;;5093613;28;20104;-69
2020/12/04 08:30:15;;;;;;;8.48;4.43;;;7.70;81.40;;;;;;5094427;28;20510;-69
2020/12/04 08:32:46;;;;;;;5.97;2.58;;;7.70;81.60;;;;;;5095088;28;20074;-69
2020/12/04 08:35:20;;;;;;;5.85;2.92;;;7.70;81.60;;;;;;5094931;28;20464;-69
2020/12/04 08:37:51;;;;;;;7.03;3.90;;;7.70;81.60;;;;;;5093921;28;20067;-69
2020/12/04 08:40:27;;;;;;;9.32;5.57;;;7.70;82.20;;;;;;5094795;28;20024;-69
2020/12/04 08:43:14;;;;;;;9.15;4.97;;;7.70;81.50;;;;;;5094846;28;20028;-69
2020/12/04 08:45:43;;;;;;;6.40;3.50;;;7.70;81.40;;;;;;5093713;28;20035;-70
2020/12/04 08:48:10;;;;;;;7.78;4.40;;;7.70;81.40;;;;;;5093226;28;20032;-76
2020/12/04 08:50:41;;;;;;;5.57;3.20;;;7.70;81.50;;;;;;5094520;28;20475;-70
2020/12/04 08:53:11;;;;;;;9.45;4.90;;;7.70;81.40;;;;;;5092437;28;20043;-69
2020/12/04 08:55:37;;;;;;;11.35;5.20;;;7.70;81.40;;;;;;5093432;28;20410;-70
2020/12/04 08:58:03;;;;;;;8.35;4.53;;;7.70;81.20;;;;;;5092726;28;20045;-70
2020/12/04 09:00:33;;;;;;;6.78;3.80;;;7.70;81.10;;;;;;5094486;28;20028;-70
2020/12/04 09:03:02;;;;;;;5.68;3.17;;;7.80;81.80;;;;;;5094197;28;20127;-69
2020/12/04 09:05:27;;;;;;;11.23;5.07;;;7.80;81.20;;;;;;5093509;28;20039;-69
2020/12/04 09:07:53;;;;;;;7.88;4.80;;;7.70;81.20;;;;;;5094474;28;20472;-69
2020/12/04 09:10:19;;;;;;;5.28;3.70;;;7.70;81.20;;;;;;5094354;28;20035;-69
2020/12/04 09:12:49;;;;;;;9.35;5.43;;;7.80;81.30;;;;;;5093511;28;20440;-69
2020/12/04 09:15:17;;;;;;;10.13;4.97;;;7.80;81.20;;;;;;5094147;28;20047;-70
2020/12/04 09:17:43;;;;;;;7.18;4.68;;;7.80;81.20;;;;;;5093982;28;20036;-69
2020/12/04 09:20:11;;;;;;;8.10;4.70;;;7.80;81.30;;;;;;5093381;28;20054;-69
2020/12/04 09:22:37;;;;;;;8.05;4.60;;;7.80;81.20;;;;;;5094082;28;20043;-70
2020/12/04 09:25:06;;;;;;;5.68;3.40;;;7.80;81.30;;;;;;5093886;28;20087;-70
2020/12/04 09:27:32;;;;;;;6.43;3.67;;;7.80;81.30;;;;;;5093480;28;20028;-69
2020/12/04 09:29:57;;;;;;;7.18;4.95;;;7.80;81.30;;;;;;5093870;28;20038;-69
2020/12/04 09:32:23;;;;;;;8.23;4.53;;;7.80;81.50;;;;;;5093849;28;20480;-69
2020/12/04 09:34:50;;;;;;;7.05;4.28;;;7.80;81.40;;;;;;5093032;28;20044;-69
2020/12/04 09:37:20;;;;;;;12.48;4.53;;;7.80;81.40;;;;;;5092411;28;20032;-70
2020/12/04 09:39:49;;;;;;;5.50;3.47;;;7.90;81.50;;;;;;5093861;28;20064;-69
2020/12/04 09:42:16;;;;;;;7.53;4.72;;;7.90;81.50;;;;;;5093089;28;20030;-69
2020/12/04 09:44:43;;;;;;;5.20;3.47;;;7.90;81.40;;;;;;5093774;28;20118;-70
2020/12/04 09:47:09;;;;;;;8.18;3.58;;;7.90;81.50;;;;;;5092793;28;20455;-69
2020/12/04 09:49:35;;;;;;;7.60;3.97;;;7.90;81.60;;;;;;5093745;28;20035;-69
2020/12/04 09:52:01;;;;;;;13.30;3.78;;;7.90;81.50;;;;;;5093824;28;20476;-69
2020/12/04 09:54:29;;;;;;;5.47;3.10;;;7.90;81.40;;;;;;5092884;28;20341;-70
2020/12/04 09:56:56;;;;;;;9.30;4.18;;;7.90;81.50;;;;;;5093349;28;20036;-69
2020/12/04 09:59:22;;;;;;;5.13;2.78;;;8.00;81.50;;;;;;5092704;28;20036;-70
2020/12/04 10:01:49;;;;;;;6.22;4.32;;;8.00;81.40;;;;;;5092718;28;20460;-70
2020/12/04 10:04:15;;;;;;;5.88;3.13;;;8.00;81.40;;;;;;5093583;28;20044;-69
2020/12/04 10:06:40;;;;;;;6.50;4.00;;;8.00;81.40;;;;;;5093696;28;20020;-69
2020/12/04 10:09:06;;;;;;;5.97;3.03;;;8.10;81.50;;;;;;5092691;28;20467;-70
2020/12/04 10:11:32;;;;;;;4.35;1.80;;;8.10;81.40;;;;;;5093548;28;20037;-70
2020/12/04 10:13:58;;;;;;;6.72;3.30;;;8.10;81.50;;;;;;5092295;28;20032;-69
2020/12/04 10:16:24;;;;;;;4.78;3.08;;;8.10;81.40;;;;;;5092870;28;20034;-70
2020/12/04 10:18:49;;;;;;;7.15;3.35;;;8.20;81.50;;;;;;5093362;28;20115;-69
2020/12/04 10:21:15;;;;;;;6.82;3.30;;;8.20;81.50;;;;;;5093173;28;20094;-69
2020/12/04 10:23:41;;;;;;;5.68;2.95;;;8.20;81.50;;;;;;5092474;28;20491;-69
2020/12/04 10:26:06;;;;;;;14.70;4.05;;;8.20;81.40;;;;;;5093220;28;20032;-70
2020/12/04 10:28:32;;;;;;;7.85;3.03;;;8.20;81.50;;;;;;5093176;28;20072;-70
2020/12/04 10:31:01;;;;;;;2.95;1.27;;;8.20;81.50;;;;;;5092727;28;20028;-70
2020/12/04 10:33:27;;;;;;;10.00;2.55;;;8.30;81.70;;;;;;5093378;28;20039;-70
2020/12/04 10:35:53;;;;;;;5.57;3.30;;;8.30;81.70;;;;;;5093381;28;20028;-70
2020/12/04 10:38:18;;;;;;;8.48;3.30;;;8.30;81.70;;;;;;5092192;28;20035;-72
2020/12/04 10:40:44;;;;;;;3.00;2.15;;;8.30;81.80;;;;;;5093359;28;20020;-68
2020/12/04 10:43:09;;;;;;;5.72;3.35;;;8.30;81.70;;;;;;5093008;28;20471;-67
2020/12/04 10:45:35;;;;;;;2.88;1.98;;;8.40;81.70;;;;;;5092570;28;20035;-69
2020/12/04 10:48:01;;;;;;;5.05;2.88;;;8.40;81.70;;;;;;5093301;28;20024;-70
2020/12/04 10:50:27;;;;;;;6.35;2.88;;;8.40;82.20;;;;;;5092036;28;20460;-69
2020/12/04 10:52:53;;;;;;;4.18;2.42;;;8.50;81.60;;;;;;5093126;28;20392;-69
2020/12/04 10:55:19;;;;;;;19.92;4.38;;;8.50;82.20;;;;;;5092902;28;20036;-69
2020/12/04 10:57:44;;;;;;;3.63;2.42;;;8.50;81.50;;;;;;5092141;28;20020;-70
2020/12/04 11:00:10;;;;;;;2.67;1.00;;;8.60;81.50;;;;;;5093153;28;20032;-70
2020/12/04 11:02:38;;;;;;;4.47;2.55;;;8.60;81.50;;;;;;5093027;28;20115;-69
2020/12/04 11:07:48;;;;;;;3.03;2.17;;;8.70;81.50;;;;;;5092984;28;20027;-70
2020/12/04 11:10:14;;;;;;;3.58;2.03;;;8.70;81.40;;;;;;5095383;28;20036;-69
2020/12/04 11:12:40;;;;;;;2.53;1.70;;;8.80;81.40;;;;;;5095698;28;20028;-69
2020/12/04 11:15:07;;;;;;;4.03;2.63;;;8.80;81.30;;;;;;5096679;28;20059;-69
2020/12/04 11:17:33;;;;;;;4.13;2.53;;;8.80;81.20;;;;;;5096434;28;20035;-69
2020/12/04 11:19:59;;;;;;;6.05;2.55;;;8.80;81.10;;;;;;5095684;28;20028;-69
2020/12/04 11:22:24;;;;;;;7.40;2.45;;;8.90;81.30;;;;;;5096147;28;20035;-70
2020/12/04 11:24:50;;;;;;;6.82;2.72;;;8.80;81.10;;;;;;5096230;28;20047;-71
2020/12/04 11:27:16;;;;;;;4.43;2.13;;;8.90;81.10;;;;;;5095687;28;20467;-71
2020/12/04 11:29:41;;;;;;;10.60;2.67;;;9.00;81.10;;;;;;5096365;28;20111;-72
2020/12/04 11:32:07;;;;;;;4.53;3.00;;;8.90;81.00;;;;;;5096107;28;20380;-72
2020/12/04 11:34:33;;;;;;;5.28;2.72;;;9.00;81.10;;;;;;5095424;28;20036;-72
2020/12/04 11:36:58;;;;;;;4.80;2.47;;;9.00;81.00;;;;;;5096002;28;20062;-72
2020/12/04 11:39:24;;;;;;;3.17;1.23;;;9.00;81.00;;;;;;5096113;28;20078;-72
2020/12/04 11:41:52;;;;;;;2.40;1.55;;;9.10;81.00;;;;;;5095202;28;20032;-69
2020/12/04 11:44:18;;;;;;;3.85;2.25;;;9.10;81.00;;;;;;5095807;28;20060;-75
2020/12/04 11:46:44;;;;;;;2.65;1.77;;;9.10;81.00;;;;;;5095281;28;20085;-74
2020/12/04 11:49:09;;;;;;;3.30;1.95;;;9.20;81.00;;;;;;5095760;28;20376;-74
2020/12/04 11:51:35;;;;;;;2.88;2.05;;;9.20;80.90;;;;;;5095951;28;20032;-74
2020/12/04 11:54:01;;;;;;;8.25;2.45;;;9.20;80.60;;;;;;5094826;28;20032;-72
2020/12/04 11:56:26;;;;;;;6.88;2.58;;;9.20;80.60;;;;;;5095850;28;20437;-72
2020/12/04 11:58:52;;;;;;;3.50;1.63;;;9.30;80.70;;;;;;5095725;28;20110;-72
2020/12/04 12:01:22;;;;;;;5.93;1.80;;;9.20;80.60;;;;;;5095262;28;20486;-70
2020/12/04 12:03:47;;;;;;;11.02;2.35;;;9.30;80.60;;;;;;5095486;28;20036;-70
2020/12/04 12:06:13;;;;;;;3.97;2.20;;;9.40;80.40;;;;;;5095483;28;20444;-70
2020/12/04 12:08:39;;;;;;;2.45;1.70;;;9.40;80.20;;;;;;5094674;28;20032;-70
2020/12/04 12:11:04;;;;;;;19.27;2.40;;;9.40;80.00;;;;;;5095591;28;20020;-70
2020/12/04 12:13:30;;;;;;;5.22;1.83;;;9.40;80.10;;;;;;5095461;28;20028;-70
2020/12/04 12:15:55;;;;;;;1.98;1.15;;;9.40;79.80;;;;;;5094738;28;20080;-70
2020/12/04 12:18:21;;;;;;;2.20;1.60;;;9.50;79.90;;;;;;5095318;28;20054;-70
2020/12/04 12:20:47;;;;;;;3.58;2.10;;;9.50;79.80;;;;;;5094189;28;20046;-70
2020/12/04 12:23:12;;;;;;;4.03;1.83;;;9.50;79.70;;;;;;5094152;28;20040;-71
2020/12/04 12:25:39;;;;;;;2.47;1.73;;;9.60;79.60;;;;;;5095268;28;20026;-70
2020/12/04 12:28:05;;;;;;;1.50;0.90;;;9.60;79.50;;;;;;5094995;28;20032;-70
2020/12/04 12:30:31;;;;;;;9.70;2.05;;;9.60;79.50;;;;;;5094201;28;20077;-70
2020/12/04 12:32:57;;;;;;;15.15;2.03;;;9.70;79.60;;;;;;5095097;28;20026;-69
2020/12/04 12:35:24;;;;;;;7.45;1.83;;;9.70;79.00;;;;;;5094868;28;20425;-69
2020/12/04 12:37:51;;;;;;;30.88;3.00;;;9.70;79.20;;;;;;5094098;28;20065;-69
2020/12/04 12:40:17;;;;;;;15.02;2.10;;;9.70;79.00;;;;;;5094999;28;20036;-69
2020/12/04 12:42:43;;;;;;;6.85;2.13;;;9.70;78.90;;;;;;5093488;28;20422;-69
2020/12/04 12:45:13;;;;;;;2.05;1.42;;;9.70;78.80;;;;;;5094073;28;20040;-70
2020/12/04 12:47:38;;;;;;;9.68;2.10;;;9.70;79.00;;;;;;5094833;28;20396;-69
2020/12/04 12:50:06;;;;;;;5.50;1.83;;;9.70;78.90;;;;;;5093790;28;20028;-69
2020/12/04 12:52:32;;;;;;;3.15;1.85;;;9.70;78.70;;;;;;5094717;28;20028;-69
2020/12/04 12:54:58;;;;;;;6.05;2.28;;;9.80;78.50;;;;;;5094774;28;20066;-69
2020/12/04 12:57:23;;;;;;;5.38;1.88;;;9.80;78.50;;;;;;5093958;28;20068;-69
2020/12/04 12:59:49;;;;;;;6.95;2.15;;;9.80;78.60;;;;;;5094751;28;20098;-68